No particular awareness of the weather is required.    There are no Weather-warnings


Meteo18 Weather Cam more information Meteo18 Weather Cam


Thunder radar more information blitzortung!


Rain radar more information rain snow radar


Visit our other weather sites:

Template documentation
and downloads

And another site



Weather Underground History page Text

Daily Summary for October 27, 2017 Units:  English    Metric   Both
« Previous Day
Next Day »
Daily Weekly Monthly Yearly Custom
  High: Low: Average:
Temperature: TemperatureC °F 8.6 °F 12 °F
Dew Point: DewpointC °F 6.6 °F 10.7 °F
Humidity: Humidity % 84 % 92 %
Wind Speed: WindSpeedKMH mph 0.0 mph 2.3 mph
Wind Gust: WindSpeedGustKMH mph - -
Wind:- - SSW
Pressure: PressurehPa in 1026.3 in -
Precipitation: 0.3 in    
Historical Graphs
 
 
Tabular Data for October 27, 2017
Time Temperature Dew Point Pressure Wind Wind Speed Wind Gust Humidity Rainfall Rate (Hourly)
TemperatureC °F DewpointC °F PressurehPa in Calm     Humidity % HourlyPrecipMM in
00:02 14.6 °F 13.1 °F 1026.6 in NNW 3.2 mph 6.4 mph 91 % 0.0 in
00:12 14.8 °F 13.2 °F 1026.6 in NW 3.2 mph 6.4 mph 90 % 0.0 in
00:17 14.8 °F 13.2 °F 1026.6 in NW 3.2 mph 6.4 mph 90 % 0.0 in
00:22 14.8 °F 13.2 °F 1026.3 in NW 3.2 mph 6.4 mph 90 % 0.0 in
00:32 14.8 °F 13.2 °F 1026.3 in WNW 3.2 mph 8.0 mph 90 % 0.0 in
00:37 14.8 °F 13.3 °F 1026.3 in WNW 1.6 mph 8.0 mph 91 % 0.0 in
00:42 14.7 °F 13.2 °F 1026.3 in NW 4.8 mph 8.0 mph 91 % 0.0 in
00:52 14.7 °F 13.4 °F 1026.3 in WNW 1.6 mph 6.4 mph 92 % 0.0 in
00:57 14.6 °F 13.3 °F 1026.3 in Calm   4.8 mph 92 % 0.0 in
01:02 14.6 °F 13.3 °F 1026.6 in Calm   4.8 mph 92 % 0.0 in
01:07 14.4 °F 13.3 °F 1026.6 in WNW 1.6 mph 4.8 mph 93 % 0.0 in
01:12 14.4 °F 13.3 °F 1026.3 in NW 3.2 mph 4.8 mph 93 % 0.0 in
01:17 14.5 °F 13.4 °F 1026.6 in Calm   4.8 mph 93 % 0.0 in
01:22 14.6 °F 13.6 °F 1026.3 in WNW 1.6 mph 4.8 mph 94 % 0.0 in
01:27 14.4 °F 13.3 °F 1026.3 in Calm   6.4 mph 93 % 0.0 in
01:32 14.2 °F 13.1 °F 1026.6 in Calm   6.4 mph 93 % 0.0 in
01:42 14.2 °F 13.2 °F 1026.6 in Calm   1.6 mph 94 % 0.0 in
01:47 14.1 °F 13.1 °F 1026.6 in Calm   1.6 mph 94 % 0.0 in
01:52 13.9 °F 12.9 °F 1026.6 in Calm   1.6 mph 94 % 0.0 in
01:57 13.9 °F 12.9 °F 1026.6 in Calm   1.6 mph 94 % 0.0 in
02:02 13.9 °F 13.1 °F 1026.6 in NW 1.6 mph 1.6 mph 95 % 0.0 in
02:07 13.9 °F 13.1 °F 1026.6 in Calm   1.6 mph 95 % 0.0 in
02:12 13.8 °F 13.0 °F 1026.6 in Calm   1.6 mph 95 % 0.0 in
02:17 13.7 °F 12.9 °F 1026.6 in Calm   1.6 mph 95 % 0.0 in
02:22 13.4 °F 12.5 °F 1026.6 in ENE 1.6 mph 1.6 mph 94 % 0.0 in
02:27 13.6 °F 12.8 °F 1026.6 in Calm   3.2 mph 95 % 0.0 in
02:32 13.2 °F 12.3 °F 1026.6 in Calm   3.2 mph 94 % 0.0 in
02:37 13.1 °F 12.3 °F 1026.6 in Calm   3.2 mph 95 % 0.0 in
02:42 13.1 °F 12.3 °F 1026.6 in Calm   3.2 mph 95 % 0.0 in
02:47 13.1 °F 12.3 °F 1026.6 in Calm   1.6 mph 95 % 0.0 in
02:52 13.0 °F 12.2 °F 1026.6 in Calm   1.6 mph 95 % 0.0 in
02:57 12.9 °F 12.1 °F 1027.0 in North 1.6 mph 1.6 mph 95 % 0.0 in
03:02 12.8 °F 12.2 °F 1026.6 in NNE 1.6 mph 1.6 mph 96 % 0.0 in
03:07 13.0 °F 12.4 °F 1027.0 in NNW 1.6 mph 4.8 mph 96 % 0.0 in
03:12 13.1 °F 12.5 °F 1027.0 in North 1.6 mph 4.8 mph 96 % 0.0 in
03:22 13.1 °F 12.5 °F 1027.0 in NNW 1.6 mph 3.2 mph 96 % 0.0 in
03:27 13.1 °F 12.5 °F 1027.0 in Calm   4.8 mph 96 % 0.0 in
03:32 12.4 °F 11.5 °F 1027.0 in Calm   4.8 mph 94 % 0.0 in
03:37 12.3 °F 11.5 °F 1027.0 in Calm   1.6 mph 95 % 0.0 in
03:42 12.3 °F 11.7 °F 1027.0 in Calm   1.6 mph 96 % 0.0 in
03:47 12.3 °F 11.7 °F 1027.0 in Calm   1.6 mph 96 % 0.0 in
03:52 12.2 °F 11.6 °F 1027.0 in Calm   1.6 mph 96 % 0.0 in
04:02 11.9 °F 11.1 °F 1027.0 in Calm   1.6 mph 95 % 0.0 in
04:07 11.6 °F 10.8 °F 1027.0 in Calm   1.6 mph 95 % 0.0 in
04:12 11.6 °F 11.0 °F 1027.0 in Calm   1.6 mph 96 % 0.0 in
04:17 11.3 °F 10.5 °F 1027.0 in Calm   3.2 mph 95 % 0.0 in
04:22 10.5 °F 9.4 °F 1027.0 in Calm   3.2 mph 93 % 0.0 in
04:27 10.0 °F 9.1 °F 1027.0 in Calm   1.6 mph 94 % 0.0 in
04:32 9.9 °F 9.3 °F 1027.3 in SSE 1.6 mph 1.6 mph 96 % 0.0 in
04:37 9.8 °F 9.0 °F 1027.3 in NE 3.2 mph 3.2 mph 95 % 0.0 in
04:42 9.8 °F 9.2 °F 1027.3 in Calm   3.2 mph 96 % 0.0 in
04:47 9.8 °F 9.2 °F 1027.3 in Calm   4.8 mph 96 % 0.0 in
04:52 9.8 °F 9.2 °F 1027.0 in Calm   4.8 mph 96 % 0.0 in
04:57 10.0 °F 9.4 °F 1027.3 in Calm   4.8 mph 96 % 0.0 in
05:02 10.0 °F 9.4 °F 1027.3 in Calm   4.8 mph 96 % 0.0 in
05:07 9.9 °F 9.3 °F 1027.3 in Calm   3.2 mph 96 % 0.0 in
05:12 10.1 °F 9.5 °F 1027.3 in North 1.6 mph 3.2 mph 96 % 0.0 in
05:22 10.5 °F 10.0 °F 1027.7 in NNW 1.6 mph 3.2 mph 97 % 0.0 in
05:32 10.7 °F 10.2 °F 1027.7 in North 3.2 mph 4.8 mph 97 % 0.0 in
05:37 10.9 °F 10.4 °F 1027.7 in NW 4.8 mph 4.8 mph 97 % 0.0 in
05:42 11.1 °F 10.6 °F 1027.7 in NNE 8.0 mph 8.0 mph 97 % 0.0 in
05:47 11.2 °F 10.7 °F 1027.7 in NNE 1.6 mph 11.3 mph 97 % 0.0 in
05:52 11.1 °F 10.6 °F 1027.7 in North 4.8 mph 11.3 mph 97 % 0.0 in
06:02 11.0 °F 10.4 °F 1027.7 in North 4.8 mph 12.9 mph 96 % 0.3 in
06:07 10.9 °F 10.4 °F 1027.7 in North 1.6 mph 9.7 mph 97 % 0.3 in
06:12 10.9 °F 10.4 °F 1028.0 in North 1.6 mph 9.7 mph 97 % 0.3 in
06:17 11.0 °F 10.5 °F 1028.0 in NNW 3.2 mph 9.7 mph 97 % 0.3 in
06:22 11.0 °F 10.5 °F 1028.0 in North 4.8 mph 9.7 mph 97 % 0.3 in
06:27 11.0 °F 10.5 °F 1028.0 in NNE 3.2 mph 9.7 mph 97 % 0.3 in
06:32 11.0 °F 10.5 °F 1028.0 in Calm   9.7 mph 97 % 0.3 in
06:42 11.1 °F 10.6 °F 1028.0 in North 3.2 mph 9.7 mph 97 % 0.3 in
06:47 11.1 °F 10.6 °F 1028.0 in Calm   6.4 mph 97 % 0.3 in
06:52 11.1 °F 10.6 °F 1028.3 in North 1.6 mph 6.4 mph 97 % 0.3 in
06:57 11.1 °F 10.6 °F 1028.3 in North 1.6 mph 6.4 mph 97 % 0.0 in
07:02 11.1 °F 10.6 °F 1028.3 in Calm   6.4 mph 97 % 0.0 in
07:07 11.2 °F 10.7 °F 1028.3 in Calm   4.8 mph 97 % 0.0 in
07:12 11.2 °F 10.7 °F 1028.3 in Calm   4.8 mph 97 % 0.0 in
07:17 11.2 °F 10.7 °F 1028.3 in Calm   1.6 mph 97 % 0.0 in
07:22 11.1 °F 10.6 °F 1028.3 in Calm   1.6 mph 97 % 0.0 in
07:32 11.0 °F 10.5 °F 1028.3 in Calm     97 % 0.0 in
07:42 10.9 °F 10.4 °F 1028.3 in Calm     97 % 0.0 in
07:47 10.9 °F 10.4 °F 1028.7 in Calm     97 % 0.0 in
07:57 10.8 °F 10.3 °F 1028.7 in Calm   3.2 mph 97 % 0.0 in
08:12 10.9 °F 10.4 °F 1029.0 in Calm   3.2 mph 97 % 0.0 in
08:17 10.9 °F 10.4 °F 1029.0 in NNE 3.2 mph 8.0 mph 97 % 0.0 in
08:22 10.9 °F 10.4 °F 1029.0 in NNW 4.8 mph 8.0 mph 97 % 0.0 in
08:32 11.0 °F 10.4 °F 1029.0 in NNW 4.8 mph 8.0 mph 96 % 0.0 in
08:42 11.1 °F 10.5 °F 1029.0 in NNE 11.3 mph 11.3 mph 96 % 0.0 in
08:47 11.1 °F 10.5 °F 1029.3 in NNW 4.8 mph 11.3 mph 96 % 0.0 in
08:52 11.1 °F 10.3 °F 1029.3 in NW 1.6 mph 11.3 mph 95 % 0.0 in
09:02 11.2 °F 10.4 °F 1029.3 in NNW 1.6 mph 16.1 mph 95 % 0.0 in
09:07 11.2 °F 10.4 °F 1029.7 in NNW 6.4 mph 9.7 mph 95 % 0.0 in
09:12 11.2 °F 10.4 °F 1029.7 in West 1.6 mph 9.7 mph 95 % 0.0 in
09:17 11.3 °F 10.4 °F 1029.7 in NNW 3.2 mph 11.3 mph 94 % 0.0 in
09:22 11.3 °F 10.4 °F 1030.0 in North 4.8 mph 11.3 mph 94 % 0.0 in
09:32 11.4 °F 10.5 °F 1030.0 in NNW 3.2 mph 11.3 mph 94 % 0.0 in
09:37 11.5 °F 10.4 °F 1030.4 in North 3.2 mph 11.3 mph 93 % 0.0 in
09:42 11.5 °F 10.4 °F 1030.4 in North 8.0 mph 11.3 mph 93 % 0.0 in
09:47 11.6 °F 10.5 °F 1030.4 in NNE 3.2 mph 8.0 mph 93 % 0.0 in
09:52 11.6 °F 10.5 °F 1030.4 in NW 1.6 mph 8.0 mph 93 % 0.0 in
10:02 11.7 °F 10.6 °F 1030.4 in Calm   8.0 mph 93 % 0.0 in
10:12 11.7 °F 10.6 °F 1030.4 in North 1.6 mph 6.4 mph 93 % 0.0 in
10:17 11.8 °F 10.7 °F 1030.4 in Calm   6.4 mph 93 % 0.0 in
10:22 11.8 °F 10.7 °F 1030.4 in WSW 1.6 mph 6.4 mph 93 % 0.0 in
10:32 11.8 °F 10.7 °F 1030.4 in WNW 1.6 mph 3.2 mph 93 % 0.0 in
10:42 11.9 °F 10.8 °F 1030.4 in Calm   3.2 mph 93 % 0.0 in
10:47 12.0 °F 10.7 °F 1030.4 in West 1.6 mph 3.2 mph 92 % 0.0 in
10:52 12.0 °F 10.7 °F 1030.4 in WSW 1.6 mph 3.2 mph 92 % 0.0 in
10:57 12.1 °F 10.8 °F 1030.4 in Calm   3.2 mph 92 % 0.0 in
11:02 12.1 °F 10.8 °F 1030.4 in West 1.6 mph 3.2 mph 92 % 0.0 in
11:12 12.1 °F 10.8 °F 1030.7 in Calm   3.2 mph 92 % 0.0 in
11:17 12.1 °F 10.8 °F 1030.7 in WNW 1.6 mph 3.2 mph 92 % 0.0 in
11:22 12.1 °F 11.0 °F 1031.0 in Calm   3.2 mph 93 % 0.0 in
11:32 12.3 °F 11.0 °F 1031.0 in NNW 6.4 mph 6.4 mph 92 % 0.0 in
11:42 12.4 °F 11.1 °F 1031.0 in WNW 1.6 mph 6.4 mph 92 % 0.0 in
11:47 12.5 °F 11.2 °F 1031.0 in Calm   8.0 mph 92 % 0.0 in
11:52 12.6 °F 11.3 °F 1031.0 in NW 1.6 mph 8.0 mph 92 % 0.0 in
11:57 12.7 °F 11.4 °F 1031.4 in NNW 4.8 mph 6.4 mph 92 % 0.0 in
12:02 12.7 °F 11.4 °F 1031.4 in NNE 4.8 mph 6.4 mph 92 % 0.0 in
12:07 12.7 °F 11.4 °F 1031.4 in NNW 1.6 mph 9.7 mph 92 % 0.0 in
12:12 12.7 °F 11.4 °F 1031.4 in WNW 3.2 mph 9.7 mph 92 % 0.0 in
12:17 12.7 °F 11.4 °F 1031.4 in NNE 8.0 mph 14.5 mph 92 % 0.0 in
12:22 12.7 °F 11.4 °F 1031.4 in NE 6.4 mph 14.5 mph 92 % 0.0 in
12:27 12.8 °F 11.5 °F 1031.7 in North 8.0 mph 12.9 mph 92 % 0.0 in
12:32 12.8 °F 11.5 °F 1031.7 in NNW 3.2 mph 12.9 mph 92 % 0.0 in
12:42 12.9 °F 11.6 °F 1031.7 in NNE 3.2 mph 11.3 mph 92 % 0.0 in
12:47 12.9 °F 11.6 °F 1031.4 in Calm   9.7 mph 92 % 0.0 in
12:52 12.9 °F 11.6 °F 1031.4 in WNW 1.6 mph 9.7 mph 92 % 0.0 in
12:57 12.9 °F 11.6 °F 1031.7 in WNW 3.2 mph 8.0 mph 92 % 0.0 in
13:02 12.9 °F 11.8 °F 1031.4 in WNW 4.8 mph 8.0 mph 93 % 0.0 in
13:07 13.1 °F 12.0 °F 1031.7 in WNW 1.6 mph 8.0 mph 93 % 0.0 in
13:12 13.1 °F 11.8 °F 1031.7 in West 1.6 mph 8.0 mph 92 % 0.0 in
13:17 13.2 °F 11.9 °F 1031.7 in NW 3.2 mph 6.4 mph 92 % 0.0 in
13:22 13.4 °F 12.1 °F 1031.7 in NW 3.2 mph 6.4 mph 92 % 0.0 in
13:27 13.4 °F 12.1 °F 1031.7 in NW 8.0 mph 9.7 mph 92 % 0.0 in
13:32 13.3 °F 12.0 °F 1032.1 in NNW 1.6 mph 9.7 mph 92 % 0.0 in
13:37 13.3 °F 12.0 °F 1031.7 in NW 1.6 mph 11.3 mph 92 % 0.0 in
13:42 13.4 °F 12.1 °F 1031.7 in NNE 6.4 mph 11.3 mph 92 % 0.0 in
13:52 13.4 °F 12.1 °F 1031.7 in NNW 3.2 mph 17.7 mph 92 % 0.0 in
14:02 13.5 °F 12.2 °F 1031.7 in NNW 6.4 mph 20.9 mph 92 % 0.0 in
14:12 13.5 °F 12.2 °F 1031.7 in NNW 4.8 mph 17.7 mph 92 % 0.0 in
14:22 13.5 °F 12.2 °F 1031.7 in NNE 6.4 mph 12.9 mph 92 % 0.0 in
14:32 13.4 °F 12.1 °F 1031.7 in NNE 3.2 mph 17.7 mph 92 % 0.0 in
14:42 13.4 °F 12.1 °F 1031.7 in North 11.3 mph 17.7 mph 92 % 0.0 in
14:52 13.6 °F 12.3 °F 1031.7 in North 12.9 mph 12.9 mph 92 % 0.0 in
15:02 13.7 °F 12.3 °F 1031.7 in North 8.0 mph 14.5 mph 91 % 0.0 in
15:07 13.7 °F 12.3 °F 1031.7 in North 4.8 mph 19.3 mph 91 % 0.0 in
15:12 13.7 °F 12.3 °F 1031.7 in North 8.0 mph 19.3 mph 91 % 0.0 in
15:22 13.8 °F 12.5 °F 1031.7 in North 4.8 mph 19.3 mph 92 % 0.0 in
15:32 13.9 °F 12.6 °F 1031.7 in NNE 8.0 mph 16.1 mph 92 % 0.0 in
15:37 13.9 °F 12.6 °F 1031.7 in North 6.4 mph 17.7 mph 92 % 0.0 in
15:42 13.8 °F 12.5 °F 1031.7 in North 8.0 mph 17.7 mph 92 % 0.0 in
15:47 13.8 °F 12.5 °F 1031.7 in NNW 4.8 mph 20.9 mph 92 % 0.0 in
15:52 13.6 °F 12.2 °F 1031.7 in NNE 9.7 mph 20.9 mph 91 % 0.0 in
15:57 13.6 °F 12.2 °F 1031.7 in NNW 4.8 mph 24.1 mph 91 % 0.0 in
16:02 13.6 °F 12.0 °F 1031.7 in North 9.7 mph 24.1 mph 90 % 0.0 in
16:12 13.6 °F 12.0 °F 1032.1 in North 3.2 mph 24.1 mph 90 % 0.0 in
16:17 13.6 °F 11.8 °F 1032.1 in ENE 1.6 mph 19.3 mph 89 % 0.0 in
16:22 13.6 °F 11.8 °F 1032.1 in North 4.8 mph 19.3 mph 89 % 0.0 in
16:27 13.7 °F 11.9 °F 1032.1 in NE 3.2 mph 16.1 mph 89 % 0.0 in
16:32 13.7 °F 11.9 °F 1032.1 in North 6.4 mph 16.1 mph 89 % 0.0 in
16:37 13.8 °F 12.0 °F 1032.1 in NE 4.8 mph 14.5 mph 89 % 0.0 in
16:42 13.8 °F 11.8 °F 1032.1 in NE 3.2 mph 14.5 mph 88 % 0.0 in
16:47 13.8 °F 11.7 °F 1032.1 in NE 6.4 mph 12.9 mph 87 % 0.0 in
16:52 13.9 °F 11.8 °F 1032.1 in North 4.8 mph 12.9 mph 87 % 0.0 in
16:57 13.8 °F 11.5 °F 1032.1 in NE 8.0 mph 16.1 mph 86 % 0.0 in
17:12 13.8 °F 11.5 °F 1032.1 in NNE 4.8 mph 12.9 mph 86 % 0.0 in
17:17 13.9 °F 11.4 °F 1032.1 in NE 4.8 mph 11.3 mph 85 % 0.0 in
17:22 14.0 °F 11.5 °F 1032.1 in ENE 3.2 mph 11.3 mph 85 % 0.0 in
17:27 14.0 °F 11.3 °F 1032.1 in North 3.2 mph 11.3 mph 84 % 0.0 in
17:32 14.0 °F 11.3 °F 1032.1 in NE 3.2 mph 11.3 mph 84 % 0.0 in
17:37 14.0 °F 11.3 °F 1032.1 in North 4.8 mph 11.3 mph 84 % 0.0 in
17:42 14.0 °F 11.3 °F 1032.1 in North 3.2 mph 11.3 mph 84 % 0.0 in
17:47 13.9 °F 11.4 °F 1032.1 in NE 3.2 mph 8.0 mph 85 % 0.0 in
17:52 13.9 °F 11.4 °F 1032.1 in North 6.4 mph 8.0 mph 85 % 0.0 in
17:57 13.8 °F 11.3 °F 1032.1 in Calm   8.0 mph 85 % 0.0 in
18:02 13.8 °F 11.3 °F 1032.1 in North 3.2 mph 8.0 mph 85 % 0.0 in
18:12 13.7 °F 11.2 °F 1032.1 in NE 1.6 mph 8.0 mph 85 % 0.0 in
18:17 13.7 °F 11.2 °F 1032.4 in Calm   4.8 mph 85 % 0.0 in
18:22 13.7 °F 11.2 °F 1032.4 in Calm   4.8 mph 85 % 0.0 in
18:27 13.7 °F 11.2 °F 1032.4 in Calm   4.8 mph 85 % 0.0 in
18:32 13.4 °F 10.9 °F 1032.4 in Calm   1.6 mph 85 % 0.0 in
18:37 13.1 °F 10.8 °F 1032.4 in Calm   1.6 mph 86 % 0.0 in
18:42 12.7 °F 10.6 °F 1032.4 in Calm   1.6 mph 87 % 0.0 in
18:47 12.4 °F 10.5 °F 1032.4 in WNW 1.6 mph 1.6 mph 88 % 0.0 in
18:52 12.1 °F 10.3 °F 1032.4 in Calm   1.6 mph 89 % 0.0 in
19:02 11.8 °F 10.4 °F 1032.4 in West 1.6 mph 3.2 mph 91 % 0.0 in
19:12 11.6 °F 10.3 °F 1032.4 in Calm   1.6 mph 92 % 0.0 in
19:17 11.6 °F 10.3 °F 1032.7 in WNW 1.6 mph 1.6 mph 92 % 0.0 in
19:22 11.4 °F 10.1 °F 1032.7 in Calm   1.6 mph 92 % 0.0 in
19:27 11.4 °F 10.3 °F 1032.7 in Calm   1.6 mph 93 % 0.0 in
19:32 11.4 °F 10.3 °F 1032.7 in NNW 1.6 mph 1.6 mph 93 % 0.0 in
19:42 11.6 °F 10.3 °F 1033.1 in Calm   4.8 mph 92 % 0.0 in
19:47 11.4 °F 10.1 °F 1033.1 in NNW 1.6 mph 4.8 mph 92 % 0.0 in
19:52 11.3 °F 10.0 °F 1033.1 in NNE 1.6 mph 4.8 mph 92 % 0.0 in
19:57 11.2 °F 9.9 °F 1033.1 in North 3.2 mph 9.7 mph 92 % 0.0 in
20:02 11.2 °F 9.8 °F 1033.1 in NE 3.2 mph 9.7 mph 91 % 0.0 in
20:07 11.2 °F 9.6 °F 1033.1 in North 3.2 mph 11.3 mph 90 % 0.0 in
20:12 11.2 °F 9.5 °F 1033.4 in NNE 3.2 mph 11.3 mph 89 % 0.0 in
20:17 11.1 °F 9.4 °F 1033.4 in NNE 1.6 mph 11.3 mph 89 % 0.0 in
20:22 11.1 °F 9.2 °F 1033.4 in NNW 4.8 mph 11.3 mph 88 % 0.0 in
20:27 11.1 °F 9.2 °F 1033.4 in NE 1.6 mph 8.0 mph 88 % 0.0 in
20:32 11.0 °F 9.1 °F 1033.4 in NNE 3.2 mph 8.0 mph 88 % 0.0 in
20:42 10.8 °F 9.1 °F 1033.7 in Calm   8.0 mph 89 % 0.0 in
20:47 10.8 °F 9.1 °F 1033.7 in NE 3.2 mph 6.4 mph 89 % 0.0 in
20:52 10.7 °F 8.8 °F 1033.7 in NNW 1.6 mph 6.4 mph 88 % 0.0 in
20:57 10.6 °F 8.9 °F 1033.7 in Calm   6.4 mph 89 % 0.0 in
21:02 10.5 °F 8.8 °F 1033.7 in North 1.6 mph 6.4 mph 89 % 0.0 in
21:12 10.2 °F 8.5 °F 1033.7 in NNW 1.6 mph 6.4 mph 89 % 0.0 in
21:22 10.0 °F 8.3 °F 1033.7 in Calm   6.4 mph 89 % 0.0 in
21:27 9.9 °F 8.2 °F 1034.1 in North 1.6 mph 6.4 mph 89 % 0.0 in
21:32 9.8 °F 8.2 °F 1033.7 in Calm   6.4 mph 90 % 0.0 in
21:42 9.6 °F 8.0 °F 1034.1 in North 1.6 mph 6.4 mph 90 % 0.0 in
21:52 9.5 °F 7.9 °F 1034.1 in NNE 3.2 mph 8.0 mph 90 % 0.0 in
21:57 9.6 °F 8.0 °F 1034.1 in North 6.4 mph 9.7 mph 90 % 0.0 in
22:02 9.7 °F 8.0 °F 1034.1 in North 1.6 mph 9.7 mph 89 % 0.0 in
22:12 9.7 °F 8.0 °F 1034.1 in NE 3.2 mph 9.7 mph 89 % 0.0 in
22:17 9.7 °F 8.0 °F 1034.1 in ENE 3.2 mph 9.7 mph 89 % 0.0 in
22:22 9.8 °F 7.9 °F 1034.1 in NE 3.2 mph 9.7 mph 88 % 0.0 in
22:27 9.7 °F 7.8 °F 1034.1 in Calm   12.9 mph 88 % 0.0 in
22:32 9.6 °F 7.7 °F 1034.1 in NNW 3.2 mph 12.9 mph 88 % 0.0 in
22:37 9.4 °F 7.5 °F 1034.1 in Calm   4.8 mph 88 % 0.0 in
22:42 9.4 °F 7.5 °F 1034.1 in NNW 1.6 mph 4.8 mph 88 % 0.0 in
22:52 9.3 °F 7.4 °F 1034.1 in Calm   6.4 mph 88 % 0.0 in
22:57 9.2 °F 7.3 °F 1034.1 in Calm   4.8 mph 88 % 0.0 in
23:02 9.1 °F 7.2 °F 1034.1 in Calm   4.8 mph 88 % 0.0 in
23:12 9.0 °F 7.3 °F 1033.7 in Calm   3.2 mph 89 % 0.0 in
23:17 8.9 °F 7.0 °F 1033.7 in Calm   1.6 mph 88 % 0.0 in
23:22 8.8 °F 7.1 °F 1033.7 in Calm   1.6 mph 89 % 0.0 in
23:27 8.9 °F 7.2 °F 1033.7 in Calm   3.2 mph 89 % 0.0 in
23:32 8.9 °F 7.0 °F 1033.7 in NW 1.6 mph 3.2 mph 88 % 0.0 in
23:37 8.9 °F 7.0 °F 1033.7 in Calm   3.2 mph 88 % 0.0 in
23:42 8.8 °F 6.9 °F 1033.7 in Calm   3.2 mph 88 % 0.0 in
23:47 8.8 °F 6.9 °F 1033.7 in North 1.6 mph 3.2 mph 88 % 0.0 in
23:52 8.8 °F 6.9 °F 1033.7 in North 1.6 mph 3.2 mph 88 % 0.0 in
23:57 8.6 °F 6.6 °F 1033.7 in North 1.6 mph 3.2 mph 87 % 0.0 in
Meteo18
Compliments of Weather Underground - 4 mb

Script developed by  Jim McMurry - jmcmurry@mwt.net Adapted for the template by  Wim van der Kuil - Leuven-Template.eu

You find our weather info also at:

European Weather Network

Weather Underground

Equipment we use:

Weather-station
Davis Vue

Weather-program
Meteobridge

Weather-server
Raspberry PI 2 B+

Provider
1 and 1

Davis Vue

Meteobridge

Raspberry PI 2 B+

1 and 1